North Chester, Massachusetts
Current Conditions -  °F | °C
As of 7:53 PM on Friday 24 Oct 2014 (Local Time) from KBAF Reporting Station
Broken Clouds Broken Clouds  
Wind Chill: 11°   Ceiling: 3600
Heat Index: 11°   Visibility: 10mi
Dew Point:   Wind: 0mph
Humidity: 71%   Direction: NA
Pressure: 29.78"   Gusts: NA
Location:  42.3047°N, 72.879°W
Report Text: KBAF 242353Z 00000KT 10SM FEW029 BKN036 11/06 A2978 RMK AO2 SLP087 T01060056 10133 20100 51008
Loading
Personal Weather Stations






























Interactive Weather Map
Tropical Storm Tracking
New forecast layout! Learn more

10-Day Weather Forecast

Advertisements
Track Severe Weather on mobile